Time,TemperatureF,DewpointF,PressureIn,WindDirection,WindDirectionDegrees,WindSpeedMPH,WindSpeedGustMPH,Humidity,HourlyPrecipIn,Conditions,Clouds,dailyrainin,SolarRadiationWatts/m^2,SoftwareType,DateUTC
2013-02-04 00:01:00,26.0,21.0,-100.00,NNW,336,5.0,12.0,82,0.00,,,0.00,0.000000,,2013-02-04 07:01:00,
2013-02-04 00:11:00,26.0,21.0,-100.00,NNW,336,5.0,12.0,82,0.00,,,0.00,0.000000,,2013-02-04 07:11:00,
2013-02-04 00:32:00,25.0,22.0,-100.00,NNE,22,6.0,10.0,89,0.00,,,0.00,0.000000,,2013-02-04 07:32:00,
2013-02-04 00:42:00,25.0,22.0,-100.00,NNE,22,6.0,10.0,89,0.00,,,0.00,0.000000,,2013-02-04 07:42:00,
2013-02-04 00:52:00,25.0,22.0,-100.00,NNE,22,6.0,10.0,89,0.00,,,0.00,0.000000,,2013-02-04 07:52:00,
2013-02-04 01:01:00,25.0,22.0,-100.00,NNE,22,6.0,10.0,89,0.00,,,0.00,0.000000,,2013-02-04 08:01:00,
2013-02-04 01:11:00,25.0,22.0,-100.00,NNE,22,6.0,10.0,89,0.00,,,0.00,0.000000,,2013-02-04 08:11:00,
2013-02-04 01:42:00,26.0,22.0,-100.00,North,350,7.0,9.0,86,0.00,,,-99.99,0.000000,,2013-02-04 08:42:00,
2013-02-04 01:52:00,26.0,22.0,-100.00,North,350,7.0,9.0,86,0.00,,,-99.99,0.000000,,2013-02-04 08:52:00,
2013-02-04 02:01:00,26.0,22.0,-100.00,North,350,7.0,9.0,86,0.00,,,-99.99,0.000000,,2013-02-04 09:01:00,
2013-02-04 02:11:00,26.0,22.0,-100.00,North,350,7.0,9.0,86,0.00,,,-99.99,0.000000,,2013-02-04 09:11:00,
2013-02-04 02:42:00,26.0,22.0,-100.00,North,1,6.0,10.0,84,0.00,,,0.00,0.000000,,2013-02-04 09:42:00,
2013-02-04 02:52:00,26.0,22.0,-100.00,North,1,6.0,10.0,84,0.00,,,0.00,0.000000,,2013-02-04 09:52:00,
2013-02-04 03:01:00,26.0,22.0,-100.00,North,1,6.0,10.0,84,0.00,,,0.00,0.000000,,2013-02-04 10:01:00,
2013-02-04 03:11:00,26.0,22.0,-100.00,North,1,6.0,10.0,84,0.00,,,0.00,0.000000,,2013-02-04 10:11:00,
2013-02-04 03:42:00,25.0,19.0,-100.00,East,97,2.0,9.0,78,0.00,,,0.00,0.000000,,2013-02-04 10:42:00,
2013-02-04 03:52:00,25.0,19.0,-100.00,East,97,2.0,9.0,78,0.00,,,0.00,0.000000,,2013-02-04 10:52:00,
2013-02-04 04:01:00,25.0,19.0,-100.00,East,97,2.0,9.0,78,0.00,,,0.00,0.000000,,2013-02-04 11:01:00,
2013-02-04 04:11:00,25.0,19.0,-100.00,East,97,2.0,9.0,78,0.00,,,0.00,0.000000,,2013-02-04 11:11:00,
2013-02-04 04:33:00,25.0,20.0,-100.00,NNE,12,3.0,5.0,81,0.00,,,0.00,0.000000,,2013-02-04 11:33:00,
2013-02-04 04:42:00,25.0,20.0,-100.00,NNE,12,3.0,5.0,81,0.00,,,0.00,0.000000,,2013-02-04 11:42:00,
2013-02-04 04:52:00,25.0,20.0,-100.00,NNE,12,3.0,5.0,81,0.00,,,0.00,0.000000,,2013-02-04 11:52:00,
2013-02-04 05:02:00,25.0,20.0,-100.00,NNE,12,3.0,5.0,81,0.00,,,0.00,0.000000,,2013-02-04 12:02:00,
2013-02-04 05:33:00,24.0,21.0,-100.00,NW,321,4.0,5.0,89,0.00,,,0.00,0.000000,,2013-02-04 12:33:00,
2013-02-04 05:42:00,24.0,21.0,-100.00,NW,321,4.0,5.0,89,0.00,,,0.00,0.000000,,2013-02-04 12:42:00,
2013-02-04 05:53:00,24.0,21.0,-100.00,NW,321,4.0,5.0,89,0.00,,,0.00,0.000000,,2013-02-04 12:53:00,
2013-02-04 06:02:00,24.0,21.0,-100.00,NW,321,4.0,5.0,89,0.00,,,0.00,0.000000,,2013-02-04 13:02:00,
2013-02-04 06:11:00,24.0,21.0,-100.00,NW,321,4.0,5.0,89,0.00,,,0.00,0.000000,,2013-02-04 13:11:00,
2013-02-04 06:33:00,23.0,20.0,-100.00,SW,214,3.0,5.0,88,0.00,,,-99.99,0.000000,,2013-02-04 13:33:00,
2013-02-04 06:42:00,23.0,20.0,-100.00,SW,214,3.0,5.0,88,0.00,,,-99.99,0.000000,,2013-02-04 13:42:00,
2013-02-04 06:52:00,23.0,20.0,-100.00,SW,214,3.0,5.0,88,0.00,,,-99.99,0.000000,,2013-02-04 13:52:00,
2013-02-04 07:02:00,23.0,20.0,-100.00,SW,214,3.0,5.0,88,0.00,,,-99.99,0.000000,,2013-02-04 14:02:00,
2013-02-04 07:11:00,23.0,20.0,-100.00,SW,214,3.0,5.0,88,0.00,,,-99.99,0.000000,,2013-02-04 14:11:00,
2013-02-04 07:33:00,22.0,20.0,-100.00,WSW,251,2.0,4.0,93,0.00,,,0.00,1.000000,,2013-02-04 14:33:00,
2013-02-04 07:42:00,22.0,20.0,-100.00,WSW,251,2.0,4.0,93,0.00,,,0.00,1.000000,,2013-02-04 14:42:00,
2013-02-04 07:52:00,22.0,20.0,-100.00,WSW,251,2.0,4.0,93,0.00,,,0.00,1.000000,,2013-02-04 14:52:00,
2013-02-04 08:03:00,22.0,20.0,-100.00,WSW,251,2.0,4.0,93,0.00,,,0.00,1.000000,,2013-02-04 15:03:00,
2013-02-04 08:11:00,22.0,20.0,-100.00,WSW,251,2.0,4.0,93,0.00,,,0.00,1.000000,,2013-02-04 15:11:00,
2013-02-04 08:33:00,24.0,22.0,-100.00,South,185,4.0,6.0,91,0.00,,,0.00,67.000000,,2013-02-04 15:33:00,
2013-02-04 08:43:00,24.0,22.0,-100.00,South,185,4.0,6.0,91,0.00,,,0.00,67.000000,,2013-02-04 15:43:00,
2013-02-04 08:52:00,24.0,22.0,-100.00,South,185,4.0,6.0,91,0.00,,,0.00,67.000000,,2013-02-04 15:52:00,
2013-02-04 09:02:00,24.0,22.0,-100.00,South,185,4.0,6.0,91,0.00,,,0.00,67.000000,,2013-02-04 16:02:00,
2013-02-04 09:11:00,24.0,22.0,-100.00,South,185,4.0,6.0,91,0.00,,,0.00,67.000000,,2013-02-04 16:11:00,
2013-02-04 10:42:00,32.0,26.0,-100.00,North,355,2.0,5.0,79,-99.99,,,0.00,383.000000,,2013-02-04 17:42:00,
2013-02-04 10:52:00,32.0,26.0,-100.00,North,355,2.0,5.0,79,-99.99,,,0.00,383.000000,,2013-02-04 17:52:00,
2013-02-04 11:11:00,32.0,26.0,-100.00,North,355,2.0,5.0,79,-99.99,,,0.00,383.000000,,2013-02-04 18:11:00,
2013-02-04 11:32:00,40.0,29.0,-100.00,South,174,3.0,6.0,64,0.00,,,0.00,537.000000,,2013-02-04 18:32:00,
2013-02-04 11:42:00,40.0,29.0,-100.00,South,174,3.0,6.0,64,0.00,,,0.00,537.000000,,2013-02-04 18:42:00,
2013-02-04 11:52:00,40.0,29.0,-100.00,South,174,3.0,6.0,64,0.00,,,0.00,537.000000,,2013-02-04 18:52:00,
2013-02-04 12:01:00,40.0,29.0,-100.00,South,174,3.0,6.0,64,0.00,,,0.00,537.000000,,2013-02-04 19:01:00,
2013-02-04 12:42:00,40.0,28.0,-100.00,NW,304,3.0,8.0,62,-99.99,,,0.00,596.000000,,2013-02-04 19:42:00,
2013-02-04 12:52:00,40.0,28.0,-100.00,NW,304,3.0,8.0,62,-99.99,,,0.00,596.000000,,2013-02-04 19:52:00,
2013-02-04 13:02:00,40.0,28.0,-100.00,NW,304,3.0,8.0,62,-99.99,,,0.00,596.000000,,2013-02-04 20:02:00,
2013-02-04 13:11:00,40.0,28.0,-100.00,NW,304,3.0,8.0,62,-99.99,,,0.00,596.000000,,2013-02-04 20:11:00,
2013-02-04 14:32:00,36.0,28.0,-100.00,South,184,6.0,11.0,71,-99.99,,,0.00,537.000000,,2013-02-04 21:32:00,
2013-02-04 14:43:00,36.0,28.0,-100.00,South,184,6.0,11.0,71,-99.99,,,0.00,537.000000,,2013-02-04 21:43:00,
2013-02-04 14:52:00,36.0,28.0,-100.00,South,184,6.0,11.0,71,-99.99,,,0.00,537.000000,,2013-02-04 21:52:00,
2013-02-04 15:02:00,36.0,28.0,-100.00,South,184,6.0,11.0,71,-99.99,,,0.00,537.000000,,2013-02-04 22:02:00,
2013-02-04 15:11:00,36.0,28.0,-100.00,South,184,6.0,11.0,71,-99.99,,,0.00,537.000000,,2013-02-04 22:11:00,
2013-02-04 15:33:00,34.0,25.0,-100.00,SSW,209,5.0,9.0,68,0.00,,,0.00,433.000000,,2013-02-04 22:33:00,
2013-02-04 15:42:00,34.0,25.0,-100.00,SSW,209,5.0,9.0,68,0.00,,,0.00,433.000000,,2013-02-04 22:42:00,
2013-02-04 15:52:00,34.0,25.0,-100.00,SSW,209,5.0,9.0,68,0.00,,,0.00,433.000000,,2013-02-04 22:52:00,
2013-02-04 16:01:00,34.0,25.0,-100.00,SSW,209,5.0,9.0,68,0.00,,,0.00,433.000000,,2013-02-04 23:01:00,
2013-02-04 16:11:00,34.0,25.0,-100.00,SSW,209,5.0,9.0,68,0.00,,,0.00,433.000000,,2013-02-04 23:11:00,
2013-02-04 16:32:00,32.0,22.0,-100.00,NNW,340,3.0,6.0,67,0.00,,,0.00,72.000000,,2013-02-04 23:32:00,
2013-02-04 16:42:00,32.0,22.0,-100.00,NNW,340,3.0,6.0,67,0.00,,,0.00,72.000000,,2013-02-04 23:42:00,
2013-02-04 16:52:00,32.0,22.0,-100.00,NNW,340,3.0,6.0,67,0.00,,,0.00,72.000000,,2013-02-04 23:52:00,
2013-02-04 17:01:00,32.0,22.0,-100.00,NNW,340,3.0,6.0,67,0.00,,,0.00,72.000000,,2013-02-05 00:01:00,
2013-02-04 17:11:00,32.0,22.0,-100.00,NNW,340,3.0,6.0,67,0.00,,,0.00,72.000000,,2013-02-05 00:11:00,
2013-02-04 17:42:00,29.0,19.0,-100.00,WNW,296,7.0,9.0,66,0.00,,,0.00,51.000000,,2013-02-05 00:42:00,
2013-02-04 17:52:00,29.0,19.0,-100.00,WNW,296,7.0,9.0,66,0.00,,,0.00,51.000000,,2013-02-05 00:52:00,
2013-02-04 18:01:00,29.0,19.0,-100.00,WNW,296,7.0,9.0,66,0.00,,,0.00,51.000000,,2013-02-05 01:01:00,
2013-02-04 18:11:00,29.0,19.0,-100.00,WNW,296,7.0,9.0,66,0.00,,,0.00,51.000000,,2013-02-05 01:11:00,
2013-02-04 18:42:00,27.0,21.0,-100.00,NW,311,4.0,9.0,79,0.00,,,0.00,5.000000,,2013-02-05 01:42:00,
2013-02-04 18:52:00,27.0,21.0,-100.00,NW,311,4.0,9.0,79,0.00,,,0.00,5.000000,,2013-02-05 01:52:00,
2013-02-04 19:01:00,27.0,21.0,-100.00,NW,311,4.0,9.0,79,0.00,,,0.00,5.000000,,2013-02-05 02:01:00,
2013-02-04 19:11:00,27.0,21.0,-100.00,NW,311,4.0,9.0,79,0.00,,,0.00,5.000000,,2013-02-05 02:11:00,
2013-02-04 19:32:00,26.0,22.0,-100.00,WNW,296,4.0,8.0,83,0.00,,,0.00,0.000000,,2013-02-05 02:32:00,
2013-02-04 19:42:00,26.0,22.0,-100.00,WNW,296,4.0,8.0,83,0.00,,,0.00,0.000000,,2013-02-05 02:42:00,
2013-02-04 19:52:00,26.0,22.0,-100.00,WNW,296,4.0,8.0,83,0.00,,,0.00,0.000000,,2013-02-05 02:52:00,
2013-02-04 20:01:00,26.0,22.0,-100.00,WNW,296,4.0,8.0,83,0.00,,,0.00,0.000000,,2013-02-05 03:01:00,
2013-02-04 20:11:00,26.0,22.0,-100.00,WNW,296,4.0,8.0,83,0.00,,,0.00,0.000000,,2013-02-05 03:11:00,
2013-02-04 20:32:00,26.0,22.0,-100.00,NNW,339,4.0,8.0,84,0.00,,,0.00,0.000000,,2013-02-05 03:32:00,
2013-02-04 20:42:00,26.0,22.0,-100.00,NNW,339,4.0,8.0,84,0.00,,,0.00,0.000000,,2013-02-05 03:42:00,
2013-02-04 20:52:00,26.0,22.0,-100.00,NNW,339,4.0,8.0,84,0.00,,,0.00,0.000000,,2013-02-05 03:52:00,
2013-02-04 21:01:00,26.0,22.0,-100.00,NNW,339,4.0,8.0,84,0.00,,,0.00,0.000000,,2013-02-05 04:01:00,
2013-02-04 21:11:00,26.0,22.0,-100.00,NNW,339,4.0,8.0,84,0.00,,,0.00,0.000000,,2013-02-05 04:11:00,
2013-02-04 21:32:00,24.0,21.0,-100.00,ESE,111,3.0,6.0,88,0.00,,,0.00,0.000000,,2013-02-05 04:32:00,
2013-02-04 21:42:00,24.0,21.0,-100.00,ESE,111,3.0,6.0,88,0.00,,,0.00,0.000000,,2013-02-05 04:42:00,
2013-02-04 21:52:00,24.0,21.0,-100.00,ESE,111,3.0,6.0,88,0.00,,,0.00,0.000000,,2013-02-05 04:52:00,
2013-02-04 22:02:00,24.0,21.0,-100.00,ESE,111,3.0,6.0,88,0.00,,,0.00,0.000000,,2013-02-05 05:02:00,
2013-02-04 22:11:00,24.0,21.0,-100.00,ESE,111,3.0,6.0,88,0.00,,,0.00,0.000000,,2013-02-05 05:11:00,
2013-02-04 22:32:00,24.0,22.0,-100.00,East,94,2.0,6.0,91,0.00,,,0.00,0.000000,,2013-02-05 05:32:00,
2013-02-04 22:42:00,24.0,22.0,-100.00,East,94,2.0,6.0,91,0.00,,,0.00,0.000000,,2013-02-05 05:42:00,
2013-02-04 22:52:00,24.0,22.0,-100.00,East,94,2.0,6.0,91,0.00,,,0.00,0.000000,,2013-02-05 05:52:00,
2013-02-04 23:01:00,24.0,22.0,-100.00,East,94,2.0,6.0,91,0.00,,,0.00,0.000000,,2013-02-05 06:01:00,
2013-02-04 23:11:00,24.0,22.0,-100.00,East,94,2.0,6.0,91,0.00,,,0.00,0.000000,,2013-02-05 06:11:00,
2013-02-04 23:32:00,25.0,23.0,-100.00,NE,56,3.0,6.0,91,0.00,,,0.00,0.000000,,2013-02-05 06:32:00,
2013-02-04 23:42:00,25.0,23.0,-100.00,NE,56,3.0,6.0,91,0.00,,,0.00,0.000000,,2013-02-05 06:42:00,
2013-02-04 23:52:00,25.0,23.0,-100.00,NE,56,3.0,6.0,91,0.00,,,0.00,0.000000,,2013-02-05 06:52:00,